Time;durP1;ratioP1;P1;durP2;ratioP2;P2;SDS_P1;SDS_P2;PMS_P1;PMS_P2;Temp;Humidity;BMP_temperature;BMP_pressure;BME280_temperature;BME280_humidity;BME280_pressure;Samples;Min_cycle;Max_cycle;Signal;HPM_P1;HPM_P2
2022/01/30 00:02:11;;;;;;;;;168.50;168.25;;;;;;;;5095458;28;8830;-72
2022/01/30 00:04:36;;;;;;;;;154.67;153.67;;;;;;;;5095319;28;8814;-72
2022/01/30 00:07:02;;;;;;;;;154.25;154.00;;;;;;;;5095741;28;8846;-72
2022/01/30 00:09:27;;;;;;;;;161.80;161.80;;;;;;;;5095164;28;9550;-71
2022/01/30 00:11:59;;;;;;;;;164.50;163.75;;;;;;;;5095307;28;8973;-72
2022/01/30 00:14:27;;;;;;;;;154.20;154.20;;;;;;;;5095569;28;8798;-72
2022/01/30 00:17:01;;;;;;;;;176.33;176.33;;;;;;;;5095228;27;8816;-72
2022/01/30 00:19:35;;;;;;;;;157.60;157.60;;;;;;;;5090689;28;8812;-72
2022/01/30 00:22:37;;;;;;;;;162.40;160.40;;;;;;;;5092290;28;11738;-72
2022/01/30 00:24:56;;;;;;;;;161.00;160.00;;;;;;;;5094617;28;8814;-72
2022/01/30 00:27:29;;;;;;;;;165.50;164.50;;;;;;;;5090356;28;8816;-72
2022/01/30 00:29:55;;;;;;;;;163.60;163.40;;;;;;;;5090549;28;8835;-72
2022/01/30 00:32:20;;;;;;;;;166.00;165.60;;;;;;;;5094711;28;12356;-72
2022/01/30 00:34:45;;;;;;;;;163.00;163.00;;;;;;;;5094651;28;8939;-72
2022/01/30 00:37:11;;;;;;;;;175.75;173.75;;;;;;;;5093657;28;8859;-72
2022/01/30 00:39:36;;;;;;;;;168.80;168.80;;;;;;;;5094037;28;8805;-72
2022/01/30 00:42:02;;;;;;;;;156.50;156.50;;;;;;;;5094852;28;8802;-72
2022/01/30 00:44:27;;;;;;;;;171.25;171.00;;;;;;;;5090086;28;8812;-72
2022/01/30 00:46:54;;;;;;;;;174.75;174.00;;;;;;;;5092753;28;8898;-71
2022/01/30 00:49:20;;;;;;;;;168.20;168.20;;;;;;;;5092861;28;11583;-71
2022/01/30 00:51:45;;;;;;;;;170.60;170.20;;;;;;;;5094382;28;8856;-72
2022/01/30 00:54:10;;;;;;;;;171.40;170.80;;;;;;;;5094542;28;9655;-72
2022/01/30 00:56:36;;;;;;;;;165.75;165.50;;;;;;;;5093247;28;8891;-72
2022/01/30 00:59:01;;;;;;;;;168.00;168.00;;;;;;;;5092989;28;11024;-72
2022/01/30 01:01:26;;;;;;;;;166.00;166.00;;;;;;;;5094472;28;8805;-72
2022/01/30 01:03:52;;;;;;;;;169.50;169.00;;;;;;;;5092901;28;8806;-72
2022/01/30 01:06:17;;;;;;;;;166.20;166.20;;;;;;;;5094767;28;9655;-71
2022/01/30 01:08:52;;;;;;;;;167.25;165.50;;;;;;;;5093906;28;8809;-72
2022/01/30 01:24:25;;;;;;;;;154.83;154.00;;;;;;;;5094052;28;8794;-72
2022/01/30 01:26:50;;;;;;;;;162.80;162.00;;;;;;;;5089747;28;8970;-71
2022/01/30 01:29:16;;;;;;;;;168.60;168.60;;;;;;;;5094055;28;8821;-72
2022/01/30 01:31:41;;;;;;;;;158.20;156.80;;;;;;;;5093976;28;8810;-72
2022/01/30 01:34:21;;;;;;;;;165.33;165.33;;;;;;;;5092314;28;8830;-72
2022/01/30 01:36:46;;;;;;;;;157.80;156.80;;;;;;;;5094066;28;8887;-72
2022/01/30 01:39:11;;;;;;;;;151.25;151.25;;;;;;;;5093457;28;8841;-72
2022/01/30 01:41:37;;;;;;;;;171.75;171.50;;;;;;;;5094158;28;8901;-72
2022/01/30 01:44:02;;;;;;;;;164.00;163.00;;;;;;;;5087573;28;8958;-72
2022/01/30 01:46:34;;;;;;;;;178.00;177.25;;;;;;;;5093633;28;8959;-72
2022/01/30 01:49:00;;;;;;;;;155.40;154.20;;;;;;;;5093449;28;8782;-72
2022/01/30 01:51:29;;;;;;;;;179.80;179.40;;;;;;;;5093470;28;8859;-71
2022/01/30 01:53:58;;;;;;;;;179.67;178.50;;;;;;;;5093249;28;9849;-71
2022/01/30 01:56:24;;;;;;;;;166.67;165.33;;;;;;;;5094802;28;8840;-71
2022/01/30 01:58:49;;;;;;;;;162.00;161.80;;;;;;;;5097170;28;8786;-72
2022/01/30 02:01:15;;;;;;;;;161.33;158.67;;;;;;;;5095976;28;8973;-72
2022/01/30 02:03:41;;;;;;;;;161.50;160.75;;;;;;;;5097229;28;8938;-72
2022/01/30 02:06:13;;;;;;;;;161.40;161.00;;;;;;;;5097230;28;8789;-72
2022/01/30 02:08:49;;;;;;;;;163.40;163.00;;;;;;;;5096705;28;8789;-72
2022/01/30 02:11:31;;;;;;;;;148.80;146.80;;;;;;;;5097236;28;8943;-71
2022/01/30 02:27:27;;;;;;;;;153.20;152.40;;;;;;;;5092613;28;8758;-72
2022/01/30 02:29:52;;;;;;;;;146.00;144.75;;;;;;;;5094835;28;8921;-72
2022/01/30 02:32:18;;;;;;;;;141.00;141.00;;;;;;;;5097181;28;11592;-72
2022/01/30 02:34:44;;;;;;;;;144.80;144.20;;;;;;;;5096746;28;8877;-72
2022/01/30 02:37:11;;;;;;;;;142.00;140.60;;;;;;;;5096931;28;8781;-72
2022/01/30 02:39:36;;;;;;;;;151.40;148.60;;;;;;;;5092014;28;8832;-72
2022/01/30 02:42:02;;;;;;;;;139.25;137.50;;;;;;;;5096713;28;8794;-71
2022/01/30 02:44:42;;;;;;;;;155.80;154.60;;;;;;;;5087491;28;8828;-71
2022/01/30 02:47:10;;;;;;;;;137.75;137.75;;;;;;;;5096824;28;8894;-72
2022/01/30 02:49:46;;;;;;;;;146.80;146.40;;;;;;;;5096105;28;8903;-72
2022/01/30 02:52:14;;;;;;;;;149.60;147.80;;;;;;;;5096665;28;8825;-71
2022/01/30 02:54:39;;;;;;;;;146.00;145.80;;;;;;;;5096488;28;11610;-71
2022/01/30 02:57:05;;;;;;;;;151.60;150.40;;;;;;;;5096378;28;8798;-71
2022/01/30 02:59:31;;;;;;;;;147.00;146.25;;;;;;;;5096112;28;9577;-71
2022/01/30 03:01:56;;;;;;;;;150.40;144.20;;;;;;;;5096316;28;8793;-71
2022/01/30 03:04:22;;;;;;;;;144.25;143.00;;;;;;;;5096202;28;8809;-71
2022/01/30 03:06:47;;;;;;;;;141.50;140.00;;;;;;;;5096413;28;8852;-71
2022/01/30 03:09:12;;;;;;;;;140.25;139.00;;;;;;;;5094720;28;8863;-72
2022/01/30 03:11:38;;;;;;;;;142.25;139.50;;;;;;;;5096100;28;8829;-72
2022/01/30 03:14:05;;;;;;;;;153.00;149.80;;;;;;;;5094401;28;9231;-72
2022/01/30 03:16:30;;;;;;;;;130.17;129.83;;;;;;;;5096248;28;8806;-71
2022/01/30 03:18:55;;;;;;;;;120.50;118.75;;;;;;;;5094390;28;8940;-71
2022/01/30 03:21:21;;;;;;;;;117.75;116.75;;;;;;;;5095049;28;11605;-71
2022/01/30 03:23:46;;;;;;;;;122.80;120.20;;;;;;;;5096071;28;8802;-71
2022/01/30 03:26:13;;;;;;;;;120.75;117.75;;;;;;;;5094908;28;8828;-71
2022/01/30 03:28:41;;;;;;;;;125.83;124.83;;;;;;;;5095186;28;8971;-71
2022/01/30 03:31:08;;;;;;;;;123.20;121.20;;;;;;;;5096212;28;8794;-71
2022/01/30 03:33:34;;;;;;;;;119.60;118.40;;;;;;;;5094693;28;8798;-71
2022/01/30 03:35:59;;;;;;;;;122.60;120.80;;;;;;;;5093892;28;9051;-71
2022/01/30 03:38:25;;;;;;;;;122.40;122.40;;;;;;;;5095525;28;8898;-71
2022/01/30 03:40:51;;;;;;;;;129.50;127.83;;;;;;;;5094550;28;8833;-71
2022/01/30 03:43:17;;;;;;;;;128.40;127.40;;;;;;;;5092170;28;9817;-71
2022/01/30 03:45:43;;;;;;;;;127.75;124.50;;;;;;;;5092914;28;9013;-71
2022/01/30 03:48:09;;;;;;;;;129.00;128.00;;;;;;;;5095836;28;11630;-71
2022/01/30 03:50:34;;;;;;;;;114.50;112.00;;;;;;;;5095476;28;8902;-71
2022/01/30 03:53:00;;;;;;;;;101.33;99.00;;;;;;;;5095783;28;8813;-71
2022/01/30 03:55:25;;;;;;;;;113.00;113.00;;;;;;;;5095441;28;8860;-71
2022/01/30 03:57:50;;;;;;;;;20.00;17.50;;;;;;;;5094454;28;8892;-71
2022/01/30 04:00:16;;;;;;;;;29.00;28.75;;;;;;;;5095756;28;8879;-71
2022/01/30 04:02:41;;;;;;;;;65.25;54.25;;;;;;;;5094120;28;8829;-71
2022/01/30 04:05:07;;;;;;;;;18.50;18.50;;;;;;;;5094783;28;8833;-71
2022/01/30 04:07:32;;;;;;;;;85.80;76.20;;;;;;;;5095481;28;8789;-71
2022/01/30 04:09:58;;;;;;;;;54.00;45.00;;;;;;;;5094846;28;8829;-71
2022/01/30 04:12:23;;;;;;;;;54.50;47.00;;;;;;;;5095540;28;11093;-72
2022/01/30 04:14:49;;;;;;;;;8.00;5.67;;;;;;;;5095115;28;8908;-71
2022/01/30 04:17:16;;;;;;;;;35.00;33.50;;;;;;;;5095081;28;8810;-71
2022/01/30 04:19:41;;;;;;;;;19.50;17.50;;;;;;;;5092285;28;8802;-71
2022/01/30 04:22:07;;;;;;;;;21.50;21.25;;;;;;;;5100373;28;8928;-71
2022/01/30 04:24:32;;;;;;;;;4.00;2.33;;;;;;;;5095148;28;8817;-71
2022/01/30 04:26:57;;;;;;;;;5.33;5.33;;;;;;;;5090931;28;9513;-71
2022/01/30 04:29:23;;;;;;;;;81.25;69.25;;;;;;;;5093951;28;8883;-71
2022/01/30 04:31:49;;;;;;;;;82.80;71.60;;;;;;;;5094939;28;8915;-71
2022/01/30 04:34:15;;;;;;;;;100.80;99.80;;;;;;;;5094702;28;8794;-71
2022/01/30 04:36:54;;;;;;;;;86.20;75.20;;;;;;;;5094897;28;9039;-71
2022/01/30 04:58:28;;;;;;;;;157.40;157.40;;;;;;;;5094526;28;9640;-72
2022/01/30 05:06:17;;;;;;;;;45.75;40.50;;;;;;;;5092656;28;8794;-71
2022/01/30 05:08:42;;;;;;;;;5.40;4.80;;;;;;;;5089206;28;8821;-71
2022/01/30 05:11:09;;;;;;;;;73.40;61.20;;;;;;;;5094398;28;8844;-71
2022/01/30 05:13:38;;;;;;;;;72.20;59.00;;;;;;;;5094048;28;8778;-71
2022/01/30 05:16:04;;;;;;;;;23.50;22.83;;;;;;;;5094157;28;11554;-71
2022/01/30 05:18:29;;;;;;;;;72.75;60.25;;;;;;;;5094464;28;8889;-71
2022/01/30 05:20:55;;;;;;;;;36.50;33.50;;;;;;;;5097434;28;8823;-71
2022/01/30 05:23:20;;;;;;;;;31.25;29.25;;;;;;;;5093969;28;8821;-71
2022/01/30 05:25:46;;;;;;;;;65.40;54.80;;;;;;;;5093150;28;8840;-71
2022/01/30 05:28:12;;;;;;;;;75.67;62.83;;;;;;;;5090111;28;9727;-71
2022/01/30 05:30:38;;;;;;;;;161.60;161.40;;;;;;;;5092926;28;8814;-71
2022/01/30 05:33:03;;;;;;;;;90.60;84.40;;;;;;;;5093694;28;8797;-71
2022/01/30 05:35:29;;;;;;;;;106.50;103.75;;;;;;;;5094007;28;8814;-71
2022/01/30 05:37:54;;;;;;;;;86.00;76.00;;;;;;;;5093953;28;8813;-71
2022/01/30 05:40:20;;;;;;;;;107.67;106.33;;;;;;;;5093605;28;10360;-71
2022/01/30 05:42:45;;;;;;;;;151.67;148.83;;;;;;;;5092674;28;9529;-71
2022/01/30 05:48:04;;;;;;;;;144.00;144.00;;;;;;;;5091500;28;8817;-71
2022/01/30 05:50:30;;;;;;;;;97.83;96.33;;;;;;;;5093167;28;8810;-71
2022/01/30 05:52:55;;;;;;;;;96.75;94.50;;;;;;;;5093753;28;8903;-71
2022/01/30 05:55:20;;;;;;;;;76.67;63.33;;;;;;;;5093983;28;8907;-71
2022/01/30 05:57:47;;;;;;;;;119.67;119.33;;;;;;;;5093139;28;8906;-71
2022/01/30 06:00:14;;;;;;;;;86.00;76.20;;;;;;;;5092099;28;8838;-71
2022/01/30 06:02:43;;;;;;;;;131.00;129.00;;;;;;;;5093562;28;8810;-71
2022/01/30 06:05:09;;;;;;;;;85.00;73.40;;;;;;;;5093307;28;8790;-71
2022/01/30 06:07:37;;;;;;;;;98.40;95.20;;;;;;;;5093754;28;8790;-71
2022/01/30 06:10:03;;;;;;;;;111.75;111.50;;;;;;;;5093631;28;11571;-71
2022/01/30 06:12:28;;;;;;;;;205.80;204.80;;;;;;;;5093360;28;9601;-72
2022/01/30 06:14:53;;;;;;;;;123.25;122.00;;;;;;;;5092025;28;9623;-71
2022/01/30 06:17:19;;;;;;;;;111.50;110.75;;;;;;;;5093749;28;8846;-71
2022/01/30 06:19:44;;;;;;;;;114.50;113.00;;;;;;;;5090782;28;8934;-71
2022/01/30 06:22:09;;;;;;;;;139.20;138.40;;;;;;;;5099618;28;8871;-71
2022/01/30 06:24:35;;;;;;;;;255.33;254.67;;;;;;;;5093192;28;8814;-71
2022/01/30 06:27:00;;;;;;;;;153.00;151.40;;;;;;;;5089388;28;8843;-71
2022/01/30 06:29:25;;;;;;;;;127.00;127.00;;;;;;;;5093319;28;8852;-72
2022/01/30 06:31:50;;;;;;;;;161.00;159.20;;;;;;;;5091870;28;9546;-71
2022/01/30 06:34:16;;;;;;;;;237.00;236.40;;;;;;;;5092917;28;8840;-71
2022/01/30 06:36:41;;;;;;;;;155.75;155.25;;;;;;;;5092195;28;9151;-71
2022/01/30 06:39:06;;;;;;;;;152.60;150.80;;;;;;;;5091908;28;9638;-71
2022/01/30 06:41:32;;;;;;;;;158.00;158.00;;;;;;;;5093149;28;8806;-71
2022/01/30 06:43:57;;;;;;;;;161.00;161.00;;;;;;;;5093602;28;8845;-71
2022/01/30 06:46:22;;;;;;;;;106.25;105.25;;;;;;;;5096772;28;11311;-71
2022/01/30 06:48:48;;;;;;;;;182.40;181.40;;;;;;;;5096634;28;8842;-71
2022/01/30 06:51:13;;;;;;;;;146.80;146.80;;;;;;;;5096519;28;8951;-71
2022/01/30 06:53:38;;;;;;;;;119.75;119.00;;;;;;;;5095230;28;9659;-71
2022/01/30 06:56:04;;;;;;;;;90.40;83.20;;;;;;;;5096551;28;8813;-71
2022/01/30 06:58:29;;;;;;;;;79.25;65.75;;;;;;;;5096363;28;8828;-71
2022/01/30 07:00:54;;;;;;;;;85.20;73.00;;;;;;;;5096772;28;11617;-71
2022/01/30 07:03:19;;;;;;;;;88.20;75.40;;;;;;;;5096883;28;8910;-71
2022/01/30 07:05:45;;;;;;;;;81.25;67.00;;;;;;;;5096449;28;8813;-71
2022/01/30 07:08:10;;;;;;;;;78.67;64.67;;;;;;;;5096734;28;8826;-71
2022/01/30 07:10:37;;;;;;;;;64.00;54.00;;;;;;;;5096637;28;8853;-71
2022/01/30 07:13:02;;;;;;;;;76.25;63.00;;;;;;;;5096390;28;8797;-71
2022/01/30 07:15:27;;;;;;;;;75.75;61.50;;;;;;;;5095354;28;8868;-71
2022/01/30 07:17:53;;;;;;;;;74.75;60.75;;;;;;;;5095051;28;11557;-71
2022/01/30 07:20:19;;;;;;;;;80.00;66.00;;;;;;;;5097485;28;8855;-71
2022/01/30 07:22:44;;;;;;;;;79.00;64.25;;;;;;;;5098418;28;12300;-71
2022/01/30 07:25:09;;;;;;;;;75.00;62.00;;;;;;;;5096087;28;8908;-71
2022/01/30 07:27:35;;;;;;;;;72.67;60.00;;;;;;;;5091025;28;8884;-71
2022/01/30 07:30:00;;;;;;;;;73.50;60.75;;;;;;;;5095903;28;11544;-71
2022/01/30 07:32:26;;;;;;;;;75.33;61.67;;;;;;;;5096444;28;9545;-71
2022/01/30 07:34:51;;;;;;;;;73.00;61.00;;;;;;;;5095882;28;8856;-71
2022/01/30 07:37:18;;;;;;;;;88.00;74.00;;;;;;;;5094392;28;9190;-71
2022/01/30 07:39:43;;;;;;;;;81.00;65.67;;;;;;;;5096298;28;8802;-71
2022/01/30 07:42:08;;;;;;;;;88.75;76.50;;;;;;;;5095948;28;8817;-71
2022/01/30 07:44:34;;;;;;;;;78.00;64.00;;;;;;;;5092415;28;8809;-71
2022/01/30 07:46:59;;;;;;;;;87.00;75.25;;;;;;;;5093002;28;8889;-72
2022/01/30 07:49:25;;;;;;;;;79.25;65.25;;;;;;;;5095680;28;8859;-70
2022/01/30 07:51:50;;;;;;;;;80.33;66.00;;;;;;;;5094615;28;8794;-70
2022/01/30 07:54:15;;;;;;;;;64.67;55.33;;;;;;;;5095466;28;11530;-71
2022/01/30 07:56:41;;;;;;;;;78.33;64.33;;;;;;;;5094534;28;11558;-70
2022/01/30 07:59:06;;;;;;;;;79.50;65.25;;;;;;;;5096346;28;8797;-71
2022/01/30 08:01:31;;;;;;;;;81.00;66.25;;;;;;;;5095692;28;8936;-70
2022/01/30 08:03:57;;;;;;;;;67.75;57.25;;;;;;;;5096018;28;9385;-71
2022/01/30 08:06:22;;;;;;;;;77.75;63.50;;;;;;;;5094365;28;8859;-71
2022/01/30 08:08:47;;;;;;;;;69.67;57.67;;;;;;;;5095855;28;8910;-71
2022/01/30 08:11:13;;;;;;;;;76.33;61.33;;;;;;;;5093436;28;8821;-71
2022/01/30 08:13:38;;;;;;;;;71.00;58.75;;;;;;;;5095124;28;8833;-71
2022/01/30 08:16:03;;;;;;;;;75.00;63.00;;;;;;;;5095433;28;8822;-71
2022/01/30 08:18:29;;;;;;;;;67.75;56.00;;;;;;;;5094084;28;8818;-71
2022/01/30 08:20:54;;;;;;;;;76.25;61.50;;;;;;;;5084283;28;8844;-71
2022/01/30 08:23:22;;;;;;;;;73.67;61.00;;;;;;;;5095192;28;8922;-72
2022/01/30 08:25:48;;;;;;;;;76.25;62.75;;;;;;;;5095565;28;8930;-71
2022/01/30 08:28:13;;;;;;;;;73.00;60.67;;;;;;;;5088895;28;8908;-71
2022/01/30 08:30:38;;;;;;;;;69.00;57.50;;;;;;;;5095104;28;8829;-70
2022/01/30 08:33:04;;;;;;;;;73.67;60.33;;;;;;;;5095278;28;8822;-71
2022/01/30 08:35:30;;;;;;;;;81.67;66.67;;;;;;;;5093592;28;8841;-71
2022/01/30 08:37:56;;;;;;;;;72.75;59.00;;;;;;;;5093821;28;8884;-71
2022/01/30 08:40:22;;;;;;;;;80.80;65.40;;;;;;;;5094971;28;9502;-71
2022/01/30 08:42:48;;;;;;;;;66.00;55.50;;;;;;;;5095079;28;8746;-71
2022/01/30 08:45:15;;;;;;;;;76.00;60.33;;;;;;;;5089019;28;9672;-71
2022/01/30 08:47:41;;;;;;;;;72.20;59.80;;;;;;;;5095029;28;11580;-71
2022/01/30 08:50:07;;;;;;;;;81.50;66.50;;;;;;;;5094633;28;8793;-71
2022/01/30 08:52:32;;;;;;;;;80.50;66.25;;;;;;;;5094302;28;8951;-70
2022/01/30 08:54:58;;;;;;;;;82.00;67.75;;;;;;;;5094875;28;8874;-70
2022/01/30 08:57:23;;;;;;;;;83.50;68.50;;;;;;;;5093580;28;8836;-71
2022/01/30 08:59:48;;;;;;;;;79.50;64.50;;;;;;;;5093119;28;8923;-71
2022/01/30 09:02:14;;;;;;;;;70.50;58.75;;;;;;;;5094931;28;8943;-71
2022/01/30 09:04:39;;;;;;;;;86.50;72.25;;;;;;;;5092819;28;8802;-72
2022/01/30 09:07:04;;;;;;;;;89.00;76.00;;;;;;;;5091894;28;8814;-72
2022/01/30 09:09:30;;;;;;;;;78.75;63.25;;;;;;;;5100052;28;8826;-72
2022/01/30 09:11:56;;;;;;;;;92.50;81.50;;;;;;;;5094759;28;8825;-72
2022/01/30 09:14:22;;;;;;;;;93.40;84.40;;;;;;;;5094062;28;8798;-73
2022/01/30 09:16:48;;;;;;;;;81.60;68.00;;;;;;;;5094302;28;8856;-72
2022/01/30 09:19:14;;;;;;;;;58.50;48.25;;;;;;;;5091850;28;8801;-72
2022/01/30 09:21:40;;;;;;;;;74.00;61.50;;;;;;;;5081214;28;8744;-72
2022/01/30 09:24:05;;;;;;;;;54.00;47.00;;;;;;;;5094854;28;8824;-70
2022/01/30 09:26:31;;;;;;;;;85.75;71.75;;;;;;;;5092951;28;9472;-70
2022/01/30 09:28:56;;;;;;;;;56.75;46.75;;;;;;;;5083720;28;8851;-70
2022/01/30 09:31:21;;;;;;;;;63.00;54.00;;;;;;;;5095345;28;8857;-69
2022/01/30 09:33:47;;;;;;;;;75.00;61.00;;;;;;;;5094276;28;9762;-69
2022/01/30 09:36:13;;;;;;;;;69.00;57.00;;;;;;;;5092805;28;8924;-72
2022/01/30 09:38:39;;;;;;;;;62.20;50.60;;;;;;;;5092895;28;8959;-71
2022/01/30 09:41:05;;;;;;;;;65.67;54.67;;;;;;;;5094460;28;8805;-72
2022/01/30 09:43:31;;;;;;;;;73.40;61.00;;;;;;;;5094292;28;8806;-72
2022/01/30 09:45:58;;;;;;;;;45.25;39.25;;;;;;;;5093896;28;8891;-72
2022/01/30 09:48:24;;;;;;;;;74.00;60.50;;;;;;;;5094122;28;8887;-72
2022/01/30 09:50:49;;;;;;;;;54.00;45.50;;;;;;;;5092597;28;10714;-70
2022/01/30 09:53:15;;;;;;;;;69.50;58.50;;;;;;;;5092359;28;8905;-72
2022/01/30 09:55:40;;;;;;;;;73.50;59.75;;;;;;;;5092775;28;8855;-71
2022/01/30 09:58:07;;;;;;;;;70.00;58.00;;;;;;;;5094150;28;8927;-71
2022/01/30 10:00:33;;;;;;;;;70.25;57.75;;;;;;;;5094260;28;8849;-71
2022/01/30 10:02:58;;;;;;;;;70.00;57.33;;;;;;;;5090679;28;9269;-71
2022/01/30 10:05:23;;;;;;;;;59.75;48.75;;;;;;;;5094217;28;8915;-71
2022/01/30 10:07:55;;;;;;;;;69.67;57.67;;;;;;;;5093626;28;8888;-71
2022/01/30 10:10:26;;;;;;;;;55.50;47.75;;;;;;;;5092216;28;10317;-70
2022/01/30 10:13:00;;;;;;;;;68.20;56.20;;;;;;;;5092053;28;10238;-71
2022/01/30 10:15:25;;;;;;;;;66.50;54.25;;;;;;;;5092166;28;9711;-71
2022/01/30 10:17:50;;;;;;;;;65.75;53.75;;;;;;;;5094832;28;8786;-71
2022/01/30 10:20:20;;;;;;;;;71.67;59.00;;;;;;;;5095602;28;8852;-71
2022/01/30 10:22:53;;;;;;;;;61.00;50.00;;;;;;;;5097283;28;8782;-71
2022/01/30 10:25:20;;;;;;;;;88.83;80.50;;;;;;;;5093900;28;8798;-71
2022/01/30 10:27:46;;;;;;;;;72.20;58.80;;;;;;;;5097478;28;8819;-73
2022/01/30 10:30:11;;;;;;;;;75.00;61.33;;;;;;;;5095898;28;8845;-71
2022/01/30 10:32:37;;;;;;;;;95.33;92.67;;;;;;;;5097451;28;8790;-71
2022/01/30 10:35:04;;;;;;;;;85.75;74.50;;;;;;;;5095252;28;8778;-71
2022/01/30 10:37:29;;;;;;;;;87.40;76.80;;;;;;;;5096391;28;8786;-72
2022/01/30 10:40:02;;;;;;;;;77.25;62.25;;;;;;;;5093751;28;8953;-72
2022/01/30 10:42:30;;;;;;;;;85.20;72.40;;;;;;;;5090099;28;8902;-71
2022/01/30 10:44:56;;;;;;;;;91.40;84.00;;;;;;;;5091129;28;12499;-72
2022/01/30 10:47:21;;;;;;;;;89.60;79.60;;;;;;;;5095810;28;8805;-72
2022/01/30 10:49:47;;;;;;;;;85.50;73.50;;;;;;;;5096627;28;8809;-71
2022/01/30 10:52:13;;;;;;;;;90.50;82.50;;;;;;;;5094395;28;8844;-71
2022/01/30 10:54:39;;;;;;;;;159.00;158.00;;;;;;;;5095077;28;9694;-71
2022/01/30 10:57:05;;;;;;;;;169.00;168.83;;;;;;;;5086936;28;8790;-72
2022/01/30 10:59:30;;;;;;;;;162.60;162.60;;;;;;;;5094983;28;9008;-71
2022/01/30 11:02:09;;;;;;;;;176.67;175.67;;;;;;;;5096472;28;8825;-71
2022/01/30 11:04:34;;;;;;;;;263.88;263.75;;;;;;;;5091216;28;8790;-72
2022/01/30 11:07:01;;;;;;;;;231.80;231.80;;;;;;;;5093266;28;8805;-70
2022/01/30 11:09:33;;;;;;;;;115.33;114.33;;;;;;;;5083875;28;9683;-71
2022/01/30 11:12:05;;;;;;;;;345.57;344.86;;;;;;;;5096204;28;9008;-71
2022/01/30 11:15:17;;;;;;;;;352.33;348.00;;;;;;;;5092842;28;8798;-71
2022/01/30 11:17:21;;;;;;;;;369.86;369.86;;;;;;;;5092312;28;8790;-72
2022/01/30 11:19:48;;;;;;;;;400.83;400.33;;;;;;;;5084924;28;8817;-71
2022/01/30 11:22:16;;;;;;;;;427.86;424.43;;;;;;;;5095407;28;8798;-71
2022/01/30 11:25:04;;;;;;;;;412.67;412.67;;;;;;;;5087187;28;8848;-71
2022/01/30 11:27:31;;;;;;;;;443.00;443.00;;;;;;;;5094715;28;9656;-71
2022/01/30 11:29:58;;;;;;;;;384.83;384.67;;;;;;;;5092451;28;11543;-70
2022/01/30 11:32:25;;;;;;;;;161.50;160.50;;;;;;;;5089171;28;8780;-70
2022/01/30 11:34:51;;;;;;;;;206.80;204.80;;;;;;;;5085646;28;8794;-72
2022/01/30 11:37:17;;;;;;;;;210.40;208.40;;;;;;;;5093806;28;9005;-70
2022/01/30 11:39:44;;;;;;;;;185.20;183.00;;;;;;;;5082427;28;8949;-71
2022/01/30 11:42:14;;;;;;;;;98.33;95.50;;;;;;;;5080991;28;8794;-70
2022/01/30 11:44:44;;;;;;;;;136.80;135.80;;;;;;;;5082759;28;8860;-70
2022/01/30 11:47:09;;;;;;;;;123.80;122.00;;;;;;;;5095575;28;8806;-70
2022/01/30 11:49:41;;;;;;;;;179.00;176.60;;;;;;;;5093900;28;8829;-70
2022/01/30 11:52:09;;;;;;;;;167.83;166.17;;;;;;;;5083012;28;10973;-70
2022/01/30 11:54:40;;;;;;;;;77.17;65.00;;;;;;;;5094247;28;9499;-70
2022/01/30 11:57:20;;;;;;;;;50.20;42.60;;;;;;;;5094106;28;8828;-70
2022/01/30 11:59:46;;;;;;;;;179.33;177.83;;;;;;;;5095332;28;8824;-70
2022/01/30 12:02:25;;;;;;;;;139.17;136.83;;;;;;;;5095483;28;8782;-70
2022/01/30 12:04:59;;;;;;;;;79.80;67.40;;;;;;;;5087267;28;8835;-70
2022/01/30 12:07:32;;;;;;;;;89.83;83.00;;;;;;;;5094864;28;8797;-70
2022/01/30 12:10:15;;;;;;;;;120.83;118.00;;;;;;;;5084452;28;8994;-70
2022/01/30 12:12:46;;;;;;;;;81.40;69.60;;;;;;;;5079695;28;8911;-71
2022/01/30 12:15:31;;;;;;;;;106.75;106.75;;;;;;;;5094611;28;8845;-71
2022/01/30 12:17:57;;;;;;;;;130.75;127.75;;;;;;;;5094243;28;8888;-71
2022/01/30 12:20:22;;;;;;;;;95.00;92.00;;;;;;;;5085565;28;8845;-71
2022/01/30 12:22:48;;;;;;;;;76.25;64.00;;;;;;;;5094959;28;8908;-71
2022/01/30 12:25:25;;;;;;;;;73.40;60.20;;;;;;;;5094979;28;8790;-70
2022/01/30 12:27:51;;;;;;;;;70.40;57.60;;;;;;;;5087999;28;8800;-71
2022/01/30 12:30:30;;;;;;;;;62.40;51.40;;;;;;;;5085551;28;8810;-71
2022/01/30 12:32:55;;;;;;;;;57.25;47.75;;;;;;;;5091008;28;8908;-71
2022/01/30 12:35:20;;;;;;;;;43.33;40.00;;;;;;;;5095052;28;8877;-71
2022/01/30 12:37:45;;;;;;;;;56.00;48.00;;;;;;;;5088108;28;11507;-71
2022/01/30 12:40:11;;;;;;;;;72.67;59.00;;;;;;;;5088203;28;8847;-72
2022/01/30 12:42:36;;;;;;;;;36.25;32.75;;;;;;;;5094797;28;11560;-71
2022/01/30 12:45:03;;;;;;;;;53.33;45.33;;;;;;;;5090894;28;8798;-71
2022/01/30 12:47:28;;;;;;;;;64.50;53.50;;;;;;;;5094734;28;8798;-71
2022/01/30 12:49:57;;;;;;;;;62.33;51.67;;;;;;;;5091955;28;8857;-71
2022/01/30 12:54:56;;;;;;;;;50.75;42.75;;;;;;;;5084705;28;8827;-71
2022/01/30 12:57:22;;;;;;;;;63.50;53.00;;;;;;;;5093115;28;8808;-68
2022/01/30 12:59:51;;;;;;;;;67.50;55.50;;;;;;;;5095160;28;8814;-68
2022/01/30 13:02:17;;;;;;;;;63.00;52.00;;;;;;;;5095149;28;8805;-71
2022/01/30 13:04:42;;;;;;;;;61.67;52.33;;;;;;;;5094983;28;8801;-72
2022/01/30 13:07:11;;;;;;;;;39.33;35.33;;;;;;;;5090277;28;8792;-73
2022/01/30 13:09:37;;;;;;;;;60.75;51.25;;;;;;;;5094805;28;9094;-72
2022/01/30 13:12:13;;;;;;;;;42.00;38.25;;;;;;;;5086125;28;8789;-72
2022/01/30 13:14:39;;;;;;;;;79.00;67.00;;;;;;;;5086327;28;8814;-73
2022/01/30 13:17:05;;;;;;;;;78.80;66.00;;;;;;;;5094304;28;8790;-73
2022/01/30 13:19:32;;;;;;;;;77.50;63.75;;;;;;;;5093474;28;8806;-73
2022/01/30 13:21:59;;;;;;;;;97.20;94.40;;;;;;;;5091720;28;8813;-73
2022/01/30 13:24:25;;;;;;;;;86.50;77.75;;;;;;;;5092875;28;8944;-73
2022/01/30 13:27:04;;;;;;;;;119.00;117.80;;;;;;;;5094363;28;8820;-72
2022/01/30 13:29:33;;;;;;;;;115.40;114.20;;;;;;;;5094075;28;8903;-72
2022/01/30 13:32:00;;;;;;;;;84.40;72.80;;;;;;;;5094281;28;8809;-72
2022/01/30 13:34:26;;;;;;;;;119.20;117.80;;;;;;;;5093844;28;8786;-72
2022/01/30 13:36:54;;;;;;;;;55.25;47.75;;;;;;;;5091534;28;8782;-71
2022/01/30 13:39:30;;;;;;;;;17.25;17.00;;;;;;;;5094149;28;8923;-71
2022/01/30 13:42:24;;;;;;;;;102.40;101.60;;;;;;;;5093796;28;8754;-71
2022/01/30 13:45:05;;;;;;;;;63.60;51.40;;;;;;;;5091504;28;8813;-71
2022/01/30 13:47:31;;;;;;;;;69.20;56.80;;;;;;;;5094128;28;8841;-71
2022/01/30 13:49:56;;;;;;;;;64.50;53.25;;;;;;;;5092291;28;8894;-70
2022/01/30 13:52:30;;;;;;;;;44.50;37.25;;;;;;;;5094460;28;8822;-71
2022/01/30 13:55:07;;;;;;;;;35.67;33.67;;;;;;;;5097443;28;8886;-68
2022/01/30 13:57:34;;;;;;;;;37.50;34.00;;;;;;;;5097085;28;11541;-70
2022/01/30 14:00:18;;;;;;;;;28.60;22.80;;;;;;;;5096751;28;8851;-71
2022/01/30 14:02:51;;;;;;;;;41.25;34.75;;;;;;;;5085825;28;8906;-71
2022/01/30 14:05:31;;;;;;;;;54.40;46.80;;;;;;;;5097382;28;8774;-71
2022/01/30 14:07:57;;;;;;;;;53.75;43.50;;;;;;;;5097361;28;8829;-71
2022/01/30 14:10:28;;;;;;;;;55.40;46.60;;;;;;;;5084085;28;9425;-71
2022/01/30 14:12:58;;;;;;;;;48.40;42.60;;;;;;;;5096415;28;8817;-70
2022/01/30 14:15:24;;;;;;;;;51.00;44.00;;;;;;;;5097345;28;8960;-71
2022/01/30 14:18:11;;;;;;;;;53.33;45.67;;;;;;;;5097321;28;8832;-70
2022/01/30 14:20:41;;;;;;;;;43.00;37.25;;;;;;;;5092272;28;8837;-71
2022/01/30 14:23:10;;;;;;;;;26.00;26.00;;;;;;;;5096384;28;8883;-71
2022/01/30 14:25:36;;;;;;;;;48.00;41.50;;;;;;;;5097334;28;9006;-71
2022/01/30 14:28:01;;;;;;;;;53.25;45.75;;;;;;;;5093172;28;8841;-70
2022/01/30 14:30:37;;;;;;;;;57.00;48.67;;;;;;;;5097290;28;8861;-70
2022/01/30 14:33:03;;;;;;;;;24.40;22.40;;;;;;;;5097092;28;8809;-69
2022/01/30 14:35:34;;;;;;;;;66.25;54.00;;;;;;;;5096930;28;8790;-69
2022/01/30 14:38:00;;;;;;;;;65.25;53.50;;;;;;;;5093643;28;8928;-69
2022/01/30 14:40:26;;;;;;;;;64.33;51.00;;;;;;;;5097242;28;8794;-69
2022/01/30 14:42:52;;;;;;;;;50.67;41.33;;;;;;;;5094019;28;8861;-70
2022/01/30 14:45:17;;;;;;;;;58.33;49.00;;;;;;;;5093726;28;8889;-70
2022/01/30 14:47:43;;;;;;;;;60.33;50.33;;;;;;;;5097018;28;8879;-70
2022/01/30 14:50:08;;;;;;;;;67.00;55.25;;;;;;;;5096603;28;8806;-70
2022/01/30 14:52:34;;;;;;;;;52.75;44.00;;;;;;;;5096814;28;8797;-70
2022/01/30 14:54:59;;;;;;;;;68.33;57.00;;;;;;;;5097134;28;8797;-70
2022/01/30 14:57:25;;;;;;;;;68.25;57.50;;;;;;;;5096955;28;8793;-70
2022/01/30 14:59:51;;;;;;;;;61.50;51.00;;;;;;;;5097266;28;8825;-69
2022/01/30 15:02:16;;;;;;;;;68.25;56.00;;;;;;;;5097004;28;8785;-69
2022/01/30 15:04:42;;;;;;;;;60.25;50.25;;;;;;;;5095579;28;8798;-70
2022/01/30 15:07:07;;;;;;;;;65.67;54.00;;;;;;;;5096481;28;8789;-70
2022/01/30 15:09:33;;;;;;;;;72.67;59.67;;;;;;;;5096877;28;10426;-70
2022/01/30 15:11:58;;;;;;;;;61.75;51.50;;;;;;;;5106074;28;8802;-71
2022/01/30 15:14:33;;;;;;;;;65.75;54.50;;;;;;;;5096454;28;8790;-71
2022/01/30 15:16:58;;;;;;;;;72.50;59.25;;;;;;;;5095558;28;8774;-71